Terminal Aerodrome Forecast
Issued by NWS

Home | Current Version | Previous Version | Text Only | Print | Product List | Glossary On
Versions: 1 2 3 4 5 6 7 8 9 10 11 12 13 14 15 16 17 18 19 20 21 22 23 24
000
FTUS46 KLOX 221741
TAFPRB
TAF
KPRB 221741Z 2218/2318 33012KT P6SM SCT011
     FM222000 32015G22KT P6SM SCT040
     FM222300 34015KT P6SM FEW060
     FM230300 33008KT P6SM SKC=

USA.gov is the U.S. government's official web portal to all federal, state and local government web resources and services.